createdAt,value
2022-08-10T00:00:03.446Z,2.80
2022-08-10T00:02:53.928Z,2.88
2022-08-10T00:05:43.791Z,2.60
2022-08-10T00:08:38.877Z,2.67
2022-08-10T00:11:26.055Z,2.72
2022-08-10T00:14:11.973Z,2.72
2022-08-10T00:16:57.744Z,2.58
2022-08-10T00:20:03.138Z,2.55
2022-08-10T00:22:57.413Z,2.53
2022-08-10T00:25:44.460Z,2.53
2022-08-10T00:28:30.678Z,2.20
2022-08-10T00:31:16.485Z,2.38
2022-08-10T00:34:02.493Z,2.17
2022-08-10T00:36:48.258Z,2.40
2022-08-10T00:39:36.456Z,2.22
2022-08-10T00:42:25.880Z,2.40
2022-08-10T00:45:11.670Z,2.33
2022-08-10T00:47:57.961Z,2.80
2022-08-10T00:50:44.135Z,3.22
2022-08-10T00:53:30.504Z,3.07
2022-08-10T00:57:17.110Z,3.30
2022-08-10T00:59:23.736Z,3.97
2022-08-10T01:02:11.839Z,3.50
2022-08-10T01:05:06.338Z,3.53
2022-08-10T01:08:29.534Z,3.40
2022-08-10T01:12:37.694Z,3.35
2022-08-10T01:14:41.831Z,3.28
2022-08-10T01:17:54.393Z,3.08
2022-08-10T01:20:56.092Z,3.28
2022-08-10T01:23:51.157Z,3.25
2022-08-10T01:26:57.093Z,3.10
2022-08-10T01:30:13.562Z,3.70
2022-08-10T01:33:20.290Z,2.83
2022-08-10T01:36:31.922Z,3.28
2022-08-10T01:39:32.987Z,3.00
2022-08-10T01:42:21.551Z,2.22
2022-08-10T01:45:10.598Z,2.50
2022-08-10T01:48:18.323Z,2.90
2022-08-10T01:51:49.668Z,2.40
2022-08-10T01:54:35.950Z,2.80
2022-08-10T01:57:48.419Z,2.50
2022-08-10T02:00:39.113Z,2.70
2022-08-10T02:03:26.469Z,2.80
2022-08-10T02:06:14.248Z,2.80
2022-08-10T02:09:06.510Z,2.92
2022-08-10T02:12:07.635Z,2.92
2022-08-10T02:15:01.056Z,2.13
2022-08-10T02:18:00.637Z,2.60
2022-08-10T02:20:50.294Z,2.50
2022-08-10T02:23:39.696Z,2.30
2022-08-10T02:26:26.257Z,2.40
2022-08-10T02:29:15.440Z,2.58
2022-08-10T02:32:02.854Z,2.53
2022-08-10T02:34:50.685Z,2.40
2022-08-10T02:37:40.405Z,2.25
2022-08-10T02:42:18.067Z,2.30
2022-08-10T02:45:18.410Z,2.88
2022-08-10T02:47:07.626Z,2.65
2022-08-10T02:50:18.924Z,2.42
2022-08-10T02:53:55.099Z,2.50
2022-08-10T02:56:49.783Z,2.60
2022-08-10T02:59:43.207Z,2.25
2022-08-10T03:02:43.504Z,2.42
2022-08-10T03:05:29.537Z,2.42
2022-08-10T03:08:21.199Z,2.53
2022-08-10T03:11:10.474Z,2.42
2022-08-10T03:13:59.632Z,2.30
2022-08-10T03:16:46.653Z,2.40
2022-08-10T03:20:33.908Z,2.22
2022-08-10T03:22:42.633Z,2.33
2022-08-10T03:25:29.883Z,2.22
2022-08-10T03:28:20.395Z,2.33
2022-08-10T03:31:07.560Z,2.50
2022-08-10T03:33:54.053Z,2.75
2022-08-10T03:36:45.036Z,2.22
2022-08-10T03:39:32.143Z,2.40
2022-08-10T03:42:20.327Z,2.47
2022-08-10T03:45:07.945Z,2.30
2022-08-10T03:47:56.482Z,2.20
2022-08-10T03:50:50.771Z,2.60
2022-08-10T03:54:02.702Z,2.55
2022-08-10T03:56:45.396Z,2.70
2022-08-10T03:59:31.801Z,3.25
2022-08-10T04:02:45.311Z,2.80
2022-08-10T04:05:24.015Z,2.47
2022-08-10T04:08:24.672Z,3.00
2022-08-10T04:11:11.420Z,2.92
2022-08-10T04:13:57.750Z,2.83
2022-08-10T04:16:43.842Z,2.45
2022-08-10T04:19:37.643Z,2.77
2022-08-10T04:22:27.620Z,3.33
2022-08-10T04:25:15.103Z,3.08
2022-08-10T04:28:01.314Z,2.90
2022-08-10T04:30:52.927Z,2.75
2022-08-10T04:33:45.837Z,2.78
2022-08-10T04:36:32.992Z,3.00
2022-08-10T04:39:20.142Z,2.60
2022-08-10T04:42:06.970Z,2.50
2022-08-10T04:44:54.232Z,2.50
2022-08-10T04:47:51.250Z,2.45
2022-08-10T04:50:43.993Z,2.42
2022-08-10T04:53:34.339Z,2.22
2022-08-10T04:56:40.992Z,2.33
2022-08-10T04:59:27.092Z,2.10
2022-08-10T05:02:38.795Z,2.58
2022-08-10T05:05:20.417Z,2.00
2022-08-10T05:08:09.450Z,1.85
2022-08-10T05:10:55.466Z,1.90
2022-08-10T05:13:41.129Z,1.98
2022-08-10T05:16:31.790Z,2.30
2022-08-10T05:20:01.312Z,2.00
2022-08-10T05:22:25.556Z,1.73
2022-08-10T05:25:13.398Z,1.88
2022-08-10T05:28:02.970Z,1.90
2022-08-10T05:30:52.186Z,2.05
2022-08-10T05:33:38.570Z,2.00
2022-08-10T05:36:25.073Z,1.73
2022-08-10T05:39:12.486Z,1.55
2022-08-10T05:42:01.512Z,1.75
2022-08-10T05:44:47.859Z,1.80
2022-08-10T05:48:57.852Z,1.75
2022-08-10T05:50:39.962Z,2.03
2022-08-10T05:54:02.964Z,2.30
2022-08-10T05:56:56.746Z,1.95
2022-08-10T06:00:10.923Z,1.80
2022-08-10T06:03:04.565Z,1.90
2022-08-10T06:05:54.730Z,1.83
2022-08-10T06:08:42.774Z,1.80
2022-08-10T06:12:26.979Z,1.80
2022-08-10T06:14:59.497Z,1.75
2022-08-10T06:17:47.377Z,1.60
2022-08-10T06:20:48.047Z,1.20
2022-08-10T06:23:34.963Z,1.60
2022-08-10T06:26:21.847Z,1.33
2022-08-10T06:29:11.698Z,1.48
2022-08-10T06:31:59.004Z,1.08
2022-08-10T06:34:56.407Z,1.17
2022-08-10T06:37:50.999Z,1.15
2022-08-10T06:40:43.259Z,1.42
2022-08-10T06:43:31.128Z,1.05
2022-08-10T06:46:22.368Z,1.40
2022-08-10T06:49:10.615Z,1.30
2022-08-10T06:51:57.798Z,1.17
2022-08-10T06:54:45.172Z,1.30
2022-08-10T06:57:34.279Z,1.40
2022-08-10T07:00:20.567Z,1.00
2022-08-10T07:03:16.154Z,1.25
2022-08-10T07:06:05.149Z,1.10
2022-08-10T07:08:53.406Z,1.00
2022-08-10T07:11:42.142Z,1.05
2022-08-10T07:14:29.312Z,1.02
2022-08-10T07:17:20.316Z,1.08
2022-08-10T07:20:09.410Z,1.33
2022-08-10T07:23:54.176Z,1.30
2022-08-10T07:26:03.187Z,1.50
2022-08-10T07:28:51.121Z,1.38
2022-08-10T07:31:55.715Z,1.10
2022-08-10T07:34:44.666Z,0.98
2022-08-10T07:37:34.857Z,1.20
2022-08-10T07:40:23.127Z,1.10
2022-08-10T07:43:10.229Z,1.15
2022-08-10T07:45:58.800Z,1.00
2022-08-10T07:48:49.105Z,0.93
2022-08-10T07:51:36.537Z,1.08
2022-08-10T07:54:24.035Z,0.70
2022-08-10T07:57:28.780Z,1.08
2022-08-10T08:00:18.328Z,0.75
2022-08-10T08:03:07.471Z,1.13
2022-08-10T08:05:58.881Z,1.13
2022-08-10T08:08:50.419Z,0.90
2022-08-10T08:11:38.232Z,1.08
2022-08-10T08:14:25.246Z,0.90
2022-08-10T08:17:14.441Z,1.10
2022-08-10T08:20:03.426Z,1.03
2022-08-10T08:24:14.654Z,0.95
2022-08-10T08:25:58.094Z,1.00
2022-08-10T08:28:46.133Z,1.00
2022-08-10T08:31:32.744Z,1.00
2022-08-10T08:34:20.624Z,0.80
2022-08-10T08:37:09.717Z,1.20
2022-08-10T08:39:56.251Z,0.88
2022-08-10T08:42:59.501Z,0.90
2022-08-10T08:46:14.312Z,1.13
2022-08-10T08:50:08.982Z,0.90
2022-08-10T08:52:35.896Z,0.80
2022-08-10T08:56:04.156Z,1.00
2022-08-10T08:59:09.807Z,0.90
2022-08-10T09:02:14.449Z,1.13
2022-08-10T09:05:21.620Z,0.88
2022-08-10T09:08:50.095Z,1.00
2022-08-10T09:11:52.540Z,0.93
2022-08-10T09:15:07.462Z,0.90
2022-08-10T09:18:05.973Z,1.00
2022-08-10T09:21:18.175Z,1.00
2022-08-10T09:24:25.475Z,0.90
2022-08-10T09:27:39.591Z,1.15
2022-08-10T09:30:38.462Z,0.90
2022-08-10T09:36:28.600Z,0.90
2022-08-10T09:36:55.610Z,0.98
2022-08-10T09:40:06.548Z,1.00
2022-08-10T09:43:26.919Z,0.70
2022-08-10T09:46:27.897Z,0.70
2022-08-10T09:49:54.596Z,1.10
2022-08-10T09:52:44.976Z,0.98
2022-08-10T09:56:18.117Z,0.80
2022-08-10T09:59:59.430Z,0.70
2022-08-10T10:03:03.151Z,0.80
2022-08-10T10:05:58.387Z,0.77
2022-08-10T10:09:40.324Z,0.70
2022-08-10T10:12:39.370Z,0.80
2022-08-10T10:15:44.091Z,0.82
2022-08-10T10:18:54.268Z,0.70
2022-08-10T10:22:12.503Z,0.57
2022-08-10T10:25:50.021Z,0.77
2022-08-10T10:29:30.778Z,0.60
2022-08-10T10:32:47.624Z,0.75
2022-08-10T10:35:34.385Z,0.80
2022-08-10T10:38:35.808Z,0.60
2022-08-10T10:41:56.161Z,0.50
2022-08-10T10:45:05.503Z,0.52
2022-08-10T10:48:30.612Z,0.50
2022-08-10T10:51:28.196Z,0.77
2022-08-10T10:54:47.625Z,0.88
2022-08-10T10:58:00.106Z,0.90
2022-08-10T11:01:04.731Z,0.68
2022-08-10T11:04:24.232Z,0.63
2022-08-10T11:07:11.090Z,0.73
2022-08-10T11:10:32.044Z,0.70
2022-08-10T11:14:26.144Z,0.70
2022-08-10T11:16:52.863Z,0.50
2022-08-10T11:20:06.209Z,0.60
2022-08-10T11:23:02.636Z,0.57
2022-08-10T11:26:09.211Z,0.40
2022-08-10T11:29:20.105Z,0.60
2022-08-10T11:32:21.266Z,0.50
2022-08-10T11:35:34.149Z,0.40
2022-08-10T11:39:13.354Z,0.70
2022-08-10T11:42:28.935Z,0.57
2022-08-10T11:45:34.949Z,0.70
2022-08-10T11:48:54.476Z,0.50
2022-08-10T11:51:44.344Z,0.75
2022-08-10T11:54:50.835Z,0.60
2022-08-10T11:57:55.152Z,0.52
2022-08-10T12:00:42.037Z,0.68
2022-08-10T12:03:34.602Z,0.50
2022-08-10T12:06:45.491Z,0.40
2022-08-10T12:10:10.417Z,0.50
2022-08-10T12:12:45.189Z,0.50
2022-08-10T12:15:37.221Z,0.70
2022-08-10T12:18:51.714Z,0.60
2022-08-10T12:21:47.058Z,0.57
2022-08-10T12:24:46.419Z,0.70
2022-08-10T12:27:45.625Z,0.80
2022-08-10T12:30:36.195Z,0.70
2022-08-10T12:33:32.959Z,0.57
2022-08-10T12:36:42.859Z,0.80
2022-08-10T12:39:34.518Z,0.60
2022-08-10T12:43:01.548Z,0.52
2022-08-10T12:45:37.812Z,0.50
2022-08-10T12:48:31.107Z,0.50
2022-08-10T12:51:31.327Z,0.60
2022-08-10T12:54:32.743Z,0.70
2022-08-10T12:57:24.178Z,0.50
2022-08-10T13:00:17.667Z,0.60
2022-08-10T13:03:06.270Z,0.57
2022-08-10T13:05:57.546Z,0.50
2022-08-10T13:09:08.809Z,0.60
2022-08-10T13:12:38.460Z,0.60
2022-08-10T13:15:50.414Z,0.47
2022-08-10T13:18:41.345Z,0.65
2022-08-10T13:21:33.987Z,0.77
2022-08-10T13:24:27.461Z,0.50
2022-08-10T13:27:25.545Z,0.60
2022-08-10T13:30:13.438Z,0.60
2022-08-10T13:33:01.356Z,0.57
2022-08-10T13:35:47.668Z,0.63
2022-08-10T13:38:43.945Z,0.70
2022-08-10T13:41:39.866Z,0.80
2022-08-10T13:44:41.973Z,0.88
2022-08-10T13:47:36.216Z,0.70
2022-08-10T13:50:38.456Z,0.43
2022-08-10T13:53:31.278Z,0.50
2022-08-10T13:56:18.319Z,0.70
2022-08-10T13:59:09.722Z,0.68
2022-08-10T14:02:00.804Z,0.50
2022-08-10T14:04:47.946Z,0.60
2022-08-10T14:07:39.065Z,0.50
2022-08-10T14:11:10.036Z,0.52
2022-08-10T14:14:01.774Z,0.50
2022-08-10T14:16:48.160Z,0.40
2022-08-10T14:19:43.510Z,0.50
2022-08-10T14:22:34.411Z,0.60
2022-08-10T14:25:21.348Z,0.50
2022-08-10T14:28:07.244Z,0.47
2022-08-10T14:31:00.700Z,0.40
2022-08-10T14:33:52.647Z,0.63
2022-08-10T14:36:57.520Z,0.45
2022-08-10T14:39:48.611Z,0.60
2022-08-10T14:42:44.472Z,0.55
2022-08-10T14:45:40.263Z,0.70
2022-08-10T14:48:32.075Z,0.45
2022-08-10T14:51:25.857Z,0.60
2022-08-10T14:54:17.619Z,0.50
2022-08-10T14:57:10.932Z,0.65
2022-08-10T15:00:25.480Z,0.50
2022-08-10T15:03:10.836Z,0.70
2022-08-10T15:06:07.499Z,0.70
2022-08-10T15:09:19.628Z,0.70
2022-08-10T15:12:13.349Z,0.55
2022-08-10T15:15:06.140Z,0.50
2022-08-10T15:17:57.864Z,0.60
2022-08-10T15:20:44.351Z,0.70
2022-08-10T15:24:05.475Z,0.70
2022-08-10T15:26:57.591Z,0.60
2022-08-10T15:29:57.367Z,0.40
2022-08-10T15:33:11.213Z,0.70
2022-08-10T15:36:17.713Z,0.60
2022-08-10T15:40:26.002Z,0.52
2022-08-10T15:42:24.037Z,0.60
2022-08-10T15:45:17.058Z,0.50
2022-08-10T15:48:06.481Z,0.47
2022-08-10T15:51:01.608Z,0.50
2022-08-10T15:54:02.186Z,0.70
2022-08-10T15:57:00.808Z,0.50
2022-08-10T15:59:59.157Z,0.30
2022-08-10T16:02:52.439Z,0.70
2022-08-10T16:06:01.989Z,0.98
2022-08-10T16:08:57.224Z,0.60
2022-08-10T16:12:29.334Z,0.60
2022-08-10T16:15:19.488Z,0.80
2022-08-10T16:18:09.346Z,0.80
2022-08-10T16:21:02.686Z,0.60
2022-08-10T16:24:15.036Z,0.70
2022-08-10T16:27:06.507Z,0.50
2022-08-10T16:30:02.227Z,0.63
2022-08-10T16:32:50.681Z,0.60
2022-08-10T16:35:39.164Z,0.40
2022-08-10T16:38:26.827Z,0.60
2022-08-10T16:42:02.008Z,0.63
2022-08-10T16:44:28.239Z,0.70
2022-08-10T16:47:15.225Z,0.70
2022-08-10T16:50:05.561Z,0.80
2022-08-10T16:52:54.920Z,0.40
2022-08-10T16:55:48.284Z,0.68
2022-08-10T16:58:43.494Z,0.63
2022-08-10T17:01:37.357Z,0.77
2022-08-10T17:04:27.325Z,0.88
2022-08-10T17:07:17.958Z,0.73
2022-08-10T17:10:09.318Z,0.70
2022-08-10T17:12:57.742Z,0.70
2022-08-10T17:15:51.282Z,1.02
2022-08-10T17:18:39.109Z,0.60
2022-08-10T17:21:31.356Z,0.90
2022-08-10T17:24:18.927Z,0.93
2022-08-10T17:28:04.091Z,0.77
2022-08-10T17:30:30.015Z,0.80
2022-08-10T17:33:28.679Z,0.93
2022-08-10T17:36:16.932Z,0.85
2022-08-10T17:39:05.235Z,1.17
2022-08-10T17:41:54.624Z,1.35
2022-08-10T17:44:42.377Z,1.02
2022-08-10T17:47:29.765Z,1.10
2022-08-10T17:50:20.899Z,1.17
2022-08-10T17:53:17.675Z,1.45
2022-08-10T17:56:05.563Z,1.30
2022-08-10T17:58:57.502Z,1.50
2022-08-10T18:01:58.629Z,1.25
2022-08-10T18:04:51.280Z,0.80
2022-08-10T18:07:40.904Z,0.90
2022-08-10T18:10:27.246Z,1.10
2022-08-10T18:13:18.796Z,0.93
2022-08-10T18:16:07.592Z,0.73
2022-08-10T18:19:00.127Z,1.10
2022-08-10T18:21:49.023Z,0.80
2022-08-10T18:24:37.681Z,0.60
2022-08-10T18:28:00.964Z,0.88
2022-08-10T18:30:36.339Z,0.90
2022-08-10T18:33:37.308Z,0.70
2022-08-10T18:36:24.327Z,0.63
2022-08-10T18:39:12.836Z,0.50
2022-08-10T18:42:27.786Z,0.50
2022-08-10T18:45:16.254Z,1.00
2022-08-10T18:48:17.361Z,0.98
2022-08-10T18:51:06.481Z,0.73
2022-08-10T18:53:59.393Z,0.80
2022-08-10T18:56:56.282Z,0.60
2022-08-10T19:00:08.447Z,0.70
2022-08-10T19:03:07.213Z,0.70
2022-08-10T19:06:20.284Z,1.00
2022-08-10T19:09:47.425Z,0.90
2022-08-10T19:13:06.979Z,0.90
2022-08-10T19:16:35.766Z,0.90
2022-08-10T19:19:34.111Z,0.65
2022-08-10T19:22:51.002Z,0.95
2022-08-10T19:26:37.803Z,1.10
2022-08-10T19:29:05.236Z,0.68
2022-08-10T19:32:17.370Z,0.70
2022-08-10T19:35:22.778Z,0.98
2022-08-10T19:38:36.033Z,0.70
2022-08-10T19:41:42.040Z,0.70
2022-08-10T19:44:54.966Z,0.73
2022-08-10T19:48:06.155Z,0.80
2022-08-10T19:51:23.340Z,0.80
2022-08-10T19:54:24.886Z,0.70
2022-08-10T19:57:29.187Z,0.90
2022-08-10T20:00:22.799Z,0.80
2022-08-10T20:03:14.632Z,0.80
2022-08-10T20:06:37.725Z,0.73
2022-08-10T20:09:30.106Z,1.02
2022-08-10T20:12:42.676Z,1.03
2022-08-10T20:15:51.360Z,0.80
2022-08-10T20:18:43.593Z,1.10
2022-08-10T20:21:47.055Z,0.87
2022-08-10T20:24:52.479Z,1.15
2022-08-10T20:28:00.508Z,0.90
2022-08-10T20:30:53.004Z,0.77
2022-08-10T20:33:42.786Z,0.80
2022-08-10T20:36:36.693Z,0.70
2022-08-10T20:39:49.198Z,0.70
2022-08-10T20:43:07.049Z,0.80
2022-08-10T20:46:11.188Z,0.60
2022-08-10T20:49:04.272Z,0.90
2022-08-10T20:52:00.261Z,0.88
2022-08-10T20:54:52.225Z,0.73
2022-08-10T20:58:06.435Z,0.70
2022-08-10T21:01:17.383Z,0.60
2022-08-10T21:04:19.987Z,0.85
2022-08-10T21:07:43.993Z,0.60
2022-08-10T21:11:04.647Z,0.70
2022-08-10T21:14:01.762Z,0.85
2022-08-10T21:17:16.849Z,0.50
2022-08-10T21:20:31.065Z,0.68
2022-08-10T21:23:19.716Z,0.77
2022-08-10T21:26:15.042Z,0.90
2022-08-10T21:29:39.809Z,0.77
2022-08-10T21:32:43.976Z,0.93
2022-08-10T21:35:42.543Z,0.88
2022-08-10T21:38:40.812Z,1.00
2022-08-10T21:42:17.019Z,0.90
2022-08-10T21:45:58.758Z,0.95
2022-08-10T21:49:22.929Z,0.80
2022-08-10T21:52:53.499Z,0.90
2022-08-10T21:56:14.602Z,0.90
2022-08-10T21:59:34.992Z,0.95
2022-08-10T22:02:50.939Z,0.90
2022-08-10T22:05:58.016Z,0.90
2022-08-10T22:09:06.760Z,0.82
2022-08-10T22:12:31.020Z,0.90
2022-08-10T22:15:42.486Z,0.88
2022-08-10T22:19:14.532Z,0.80
2022-08-10T22:22:35.361Z,1.13
2022-08-10T22:25:46.643Z,0.70
2022-08-10T22:29:09.446Z,0.80
2022-08-10T22:32:35.089Z,0.70
2022-08-10T22:36:11.712Z,0.50
2022-08-10T22:40:05.893Z,0.70
2022-08-10T22:43:35.561Z,0.90
2022-08-10T22:46:51.447Z,0.83
2022-08-10T22:49:37.441Z,0.80
2022-08-10T22:52:27.953Z,0.60
2022-08-10T22:55:42.225Z,0.80
2022-08-10T22:58:40.928Z,0.95
2022-08-10T23:02:08.206Z,0.90
2022-08-10T23:05:02.576Z,1.17
2022-08-10T23:08:02.704Z,0.88
2022-08-10T23:10:51.416Z,0.75
2022-08-10T23:13:44.761Z,0.90
2022-08-10T23:17:00.998Z,1.00
2022-08-10T23:20:17.231Z,1.13
2022-08-10T23:23:09.795Z,1.40
2022-08-10T23:25:59.696Z,1.70
2022-08-10T23:28:58.188Z,1.40
2022-08-10T23:32:06.705Z,1.23
2022-08-10T23:36:31.497Z,1.10
2022-08-10T23:38:03.468Z,1.25
2022-08-10T23:40:53.745Z,1.38
2022-08-10T23:44:04.095Z,1.48
2022-08-10T23:46:52.226Z,1.23
2022-08-10T23:49:39.372Z,1.27
2022-08-10T23:52:33.765Z,1.58
2022-08-10T23:55:23.437Z,1.90
2022-08-10T23:58:33.000Z,1.83
